Time;durP1;ratioP1;P1;durP2;ratioP2;P2;SDS_P1;SDS_P2;PMS_P1;PMS_P2;Temp;Humidity;BMP_temperature;BMP_pressure;BME280_temperature;BME280_humidity;BME280_pressure;Samples;Min_cycle;Max_cycle;Signal;HPM_P1;HPM_P2
2022/09/20 00:01:06;;;;;;;2.15;1.60;;;;;;;8.44;100.00;100287.25;5016287;28;20030;-76
2022/09/20 00:03:35;;;;;;;3.58;1.52;;;;;;;8.43;100.00;100279.97;5033841;28;20043;-76
2022/09/20 00:06:02;;;;;;;3.65;1.80;;;;;;;8.36;100.00;100283.16;5017582;28;20029;-77
2022/09/20 00:08:27;;;;;;;3.72;1.27;;;;;;;8.32;100.00;100286.16;5035570;28;20104;-77
2022/09/20 00:11:14;;;;;;;2.88;1.98;;;;;;;8.33;100.00;100286.94;5017260;28;20117;-77
2022/09/20 00:13:41;;;;;;;1.70;1.20;;;;;;;8.35;100.00;100288.06;5017582;28;20033;-77
2022/09/20 00:16:16;;;;;;;2.08;1.40;;;;;;;8.37;100.00;100284.72;5034263;28;20057;-77
2022/09/20 00:18:41;;;;;;;2.47;1.52;;;;;;;8.37;100.00;100279.81;5034029;28;20029;-77
2022/09/20 00:21:14;;;;;;;2.67;1.85;;;;;;;8.39;100.00;100271.59;5033862;28;20116;-77
2022/09/20 00:23:40;;;;;;;13.15;2.47;;;;;;;8.39;100.00;100283.00;5034388;28;20036;-77
2022/09/20 00:26:05;;;;;;;2.88;2.13;;;;;;;8.44;100.00;100270.16;5033962;28;20025;-76
2022/09/20 00:28:30;;;;;;;2.75;1.70;;;;;;;8.50;100.00;100285.34;5033938;28;20048;-77
2022/09/20 00:30:56;;;;;;;2.45;1.70;;;;;;;8.49;100.00;100280.91;5033832;28;20431;-77
2022/09/20 00:33:23;;;;;;;2.58;1.40;;;;;;;8.62;100.00;100286.38;5035049;28;20088;-76
2022/09/20 00:35:48;;;;;;;2.80;1.30;;;;;;;8.58;100.00;100292.25;5033600;28;20097;-77
2022/09/20 00:38:14;;;;;;;3.95;1.73;;;;;;;8.67;100.00;100288.59;5033880;28;20025;-76
2022/09/20 00:40:41;;;;;;;3.90;1.80;;;;;;;8.68;100.00;100288.13;5033650;28;20026;-75
2022/09/20 00:43:12;;;;;;;3.38;1.50;;;;;;;8.72;100.00;100285.88;5033206;28;20021;-75
2022/09/20 00:45:38;;;;;;;3.20;1.65;;;;;;;8.71;100.00;100294.91;5033314;28;20025;-75
2022/09/20 00:48:06;;;;;;;6.28;1.50;;;;;;;8.71;100.00;100294.91;5033323;28;20036;-75
2022/09/20 00:50:37;;;;;;;2.88;1.55;;;;;;;8.78;100.00;100291.72;5034386;28;20025;-76
2022/09/20 00:53:05;;;;;;;5.10;1.48;;;;;;;8.83;100.00;100299.63;5016824;28;20557;-76
2022/09/20 00:55:32;;;;;;;2.25;1.45;;;;;;;8.82;100.00;100286.63;5034267;28;20109;-75
2022/09/20 00:57:58;;;;;;;3.45;1.60;;;;;;;8.91;100.00;100288.63;5016493;28;20064;-75
2022/09/20 01:00:25;;;;;;;3.08;1.30;;;;;;;8.93;100.00;100288.97;5032952;28;20025;-75
2022/09/20 01:02:55;;;;;;;7.03;1.67;;;;;;;8.99;100.00;100296.38;5032817;28;20025;-75
2022/09/20 01:05:20;;;;;;;2.97;1.35;;;;;;;9.01;100.00;100282.41;5016448;28;20059;-75
2022/09/20 01:07:47;;;;;;;3.13;1.55;;;;;;;9.03;100.00;100299.03;5032743;28;20112;-76
2022/09/20 01:10:13;;;;;;;4.22;1.52;;;;;;;8.90;100.00;100298.50;5016442;28;20355;-75
2022/09/20 01:12:39;;;;;;;2.65;1.20;;;;;;;8.99;100.00;100293.53;5032812;28;20036;-75
2022/09/20 01:15:07;;;;;;;2.33;1.58;;;;;;;9.02;100.00;100289.72;5032623;28;20025;-76
2022/09/20 01:17:36;;;;;;;3.97;1.50;;;;;;;9.06;100.00;100290.31;5015125;28;20075;-76
2022/09/20 01:20:12;;;;;;;1.42;1.30;;;;;;;8.98;100.00;100296.84;5013744;28;20284;-75
2022/09/20 01:22:37;;;;;;;2.10;1.50;;;;;;;8.89;100.00;100294.84;5014330;28;20116;-76
2022/09/20 01:25:10;;;;;;;7.32;1.73;;;;;;;8.95;100.00;100292.13;5032045;28;20113;-75
2022/09/20 01:27:49;;;;;;;1.77;1.58;;;;;;;8.85;100.00;100287.75;5031036;28;20033;-75
2022/09/20 01:30:19;;;;;;;1.63;1.33;;;;;;;8.89;100.00;100294.84;5014244;28;20382;-76
2022/09/20 01:32:57;;;;;;;1.80;1.15;;;;;;;8.85;100.00;100290.59;5032645;28;20025;-76
2022/09/20 01:35:24;;;;;;;1.50;1.30;;;;;;;8.81;100.00;100287.91;5015678;28;20087;-76
2022/09/20 01:38:02;;;;;;;5.07;1.65;;;;;;;8.60;100.00;100298.28;5013623;28;20072;-76
2022/09/20 01:40:50;;;;;;;3.90;1.48;;;;;;;8.50;100.00;100296.72;5030103;28;20122;-75
2022/09/20 01:43:34;;;;;;;3.83;1.63;;;;;;;8.39;100.00;100302.91;5029648;28;20030;-75
2022/09/20 01:46:16;;;;;;;3.35;1.52;;;;;;;8.47;100.00;100300.50;5013621;28;20033;-76
2022/09/20 01:48:41;;;;;;;2.60;1.13;;;;;;;8.52;100.00;100296.22;5030215;28;20025;-76
2022/09/20 01:51:37;;;;;;;2.08;1.38;;;;;;;8.51;100.00;100294.69;5015160;28;20036;-75
2022/09/20 01:54:17;;;;;;;2.33;1.98;;;;;;;8.55;100.00;100296.09;5015675;28;20025;-75
2022/09/20 01:57:01;;;;;;;2.25;1.10;;;;;;;8.58;100.00;100288.63;5032171;28;20025;-74
2022/09/20 01:59:45;;;;;;;1.90;1.20;;;;;;;8.60;100.00;100291.78;5033415;28;20110;-75
2022/09/20 02:02:58;;;;;;;2.42;1.10;;;;;;;8.64;100.00;100284.66;5031966;28;20029;-75
2022/09/20 02:05:32;;;;;;;2.45;1.35;;;;;;;8.64;100.00;100286.72;5002428;28;20038;-75
2022/09/20 02:08:13;;;;;;;1.98;1.55;;;;;;;8.66;100.00;100293.50;5032009;28;20049;-74
2022/09/20 02:11:00;;;;;;;2.35;1.60;;;;;;;8.68;100.00;100295.88;5033286;28;20021;-75
2022/09/20 02:13:32;;;;;;;1.60;1.20;;;;;;;8.73;100.00;100293.16;5015592;28;20429;-74
2022/09/20 02:16:04;;;;;;;;;;;;;;;8.71;100.00;100294.91;5032583;28;20025;-75
2022/09/20 02:18:50;;;;;;;3.53;1.25;;;;;;;8.68;100.00;100290.97;5033326;28;19945;-75
2022/09/20 02:21:50;;;;;;;3.72;1.05;;;;;;;8.64;100.00;100304.59;5033083;28;20041;-74
2022/09/20 02:24:34;;;;;;;2.40;1.27;;;;;;;8.66;100.00;100301.25;5011210;28;20037;-74
2022/09/20 02:27:11;;;;;;;2.83;1.40;;;;;;;8.47;100.00;100296.88;5033127;28;20021;-75
2022/09/20 02:30:10;;;;;;;2.67;1.73;;;;;;;8.50;100.00;100304.47;5031765;28;20033;-75
2022/09/20 02:32:54;;;;;;;2.45;1.08;;;;;;;8.57;100.00;100309.81;5033085;28;20036;-75
2022/09/20 02:35:50;;;;;;;4.70;1.45;;;;;;;8.55;100.00;100301.00;5031764;28;20431;-75
2022/09/20 02:38:41;;;;;;;1.48;1.17;;;;;;;8.60;100.00;100312.53;5015305;28;20103;-75
2022/09/20 02:41:13;;;;;;;3.85;1.80;;;;;;;8.59;100.00;100310.16;5031548;28;20475;-75
2022/09/20 02:43:58;;;;;;;4.07;1.65;;;;;;;8.57;100.00;100312.66;5031760;28;20072;-75
2022/09/20 02:46:40;;;;;;;2.90;1.55;;;;;;;8.61;100.00;100324.69;5031703;28;20022;-76
2022/09/20 02:49:13;;;;;;;2.40;1.65;;;;;;;8.60;100.00;100321.06;5032107;28;20064;-76
2022/09/20 02:51:39;;;;;;;3.30;1.58;;;;;;;8.59;100.00;100330.09;5015169;28;20028;-75
2022/09/20 02:54:14;;;;;;;2.55;1.50;;;;;;;8.56;100.00;100326.13;5031683;28;20033;-76
2022/09/20 02:56:49;;;;;;;2.30;1.60;;;;;;;8.53;100.00;100323.44;5017152;28;20554;-75
2022/09/20 02:59:36;;;;;;;4.63;1.83;;;;;;;8.48;100.00;100322.03;5035190;28;20025;-75
2022/09/20 03:02:40;;;;;;;3.05;1.80;;;;;;;8.39;100.00;100334.25;5036423;28;20493;-76
2022/09/20 03:05:17;;;;;;;3.75;2.00;;;;;;;8.34;100.00;100334.88;5012723;28;20047;-76
2022/09/20 03:08:12;;;;;;;2.13;1.83;;;;;;;8.29;100.00;100334.72;5036395;28;20040;-75
2022/09/20 03:10:43;;;;;;;4.20;1.92;;;;;;;8.26;100.00;100347.06;5034949;28;20021;-76
2022/09/20 03:13:27;;;;;;;2.85;1.98;;;;;;;8.15;100.00;100338.19;5035008;28;20433;-75
2022/09/20 03:16:39;;;;;;;2.78;2.10;;;;;;;8.02;100.00;100338.34;5036253;28;20032;-76
2022/09/20 03:19:38;;;;;;;3.90;2.00;;;;;;;7.95;100.00;100339.47;4961915;28;20046;-76
2022/09/20 03:22:12;;;;;;;4.63;2.25;;;;;;;7.88;100.00;100341.81;5034737;28;20087;-75
2022/09/20 03:25:01;;;;;;;4.65;1.90;;;;;;;7.77;100.00;100338.66;5034896;28;20415;-76
2022/09/20 03:27:35;;;;;;;3.13;2.25;;;;;;;7.80;100.00;100346.25;5035575;28;20041;-76
2022/09/20 03:30:31;;;;;;;5.28;2.20;;;;;;;7.72;100.00;100345.00;5035954;28;20037;-76
2022/09/20 03:33:19;;;;;;;5.78;2.40;;;;;;;7.64;100.00;100344.50;5035580;28;20033;-76
2022/09/20 03:35:57;;;;;;;6.25;2.97;;;;;;;7.74;100.00;100348.13;5035087;28;20030;-76
2022/09/20 03:38:34;;;;;;;6.47;2.72;;;;;;;7.81;100.00;100348.63;5034573;28;20068;-76
2022/09/20 03:41:35;;;;;;;3.65;2.70;;;;;;;7.91;100.00;100332.34;5035951;28;20033;-76
2022/09/20 03:44:10;;;;;;;3.17;2.83;;;;;;;8.01;100.00;100341.69;5034704;28;20028;-76
2022/09/20 03:46:46;;;;;;;3.67;2.90;;;;;;;8.07;100.00;100331.22;5035852;28;20029;-76
2022/09/20 03:49:37;;;;;;;6.90;3.00;;;;;;;8.23;100.00;100337.41;5017918;28;20382;-76
2022/09/20 03:52:05;;;;;;;3.85;2.67;;;;;;;8.36;100.00;100337.25;5034545;28;20052;-76
2022/09/20 03:54:52;;;;;;;5.57;2.63;;;;;;;8.40;100.00;100343.56;5035907;28;20033;-76
2022/09/20 03:57:20;;;;;;;6.72;3.38;;;;;;;8.40;100.00;100346.44;5035860;28;20029;-76
2022/09/20 04:00:07;;;;;;;3.25;2.85;;;;;;;8.48;100.00;100341.19;5035366;28;20032;-76
2022/09/20 04:02:32;;;;;;;5.82;3.20;;;;;;;8.42;100.00;100343.88;5033865;28;20034;-76
2022/09/20 04:05:01;;;;;;;5.97;2.83;;;;;;;8.47;100.00;100348.94;5035267;28;20025;-75
2022/09/20 04:08:09;;;;;;;5.60;3.10;;;;;;;8.38;100.00;100346.88;5033318;28;20075;-75
2022/09/20 04:10:45;;;;;;;6.15;2.47;;;;;;;8.17;100.00;100350.69;5017602;28;20021;-76
2022/09/20 04:13:15;;;;;;;4.53;2.72;;;;;;;8.11;100.00;100355.44;5017252;28;20383;-73
2022/09/20 04:16:05;;;;;;;3.58;2.75;;;;;;;8.14;100.00;100342.31;5033588;28;20021;-74
2022/09/20 04:18:40;;;;;;;4.03;2.78;;;;;;;8.21;100.00;100344.88;5017264;28;20036;-75
2022/09/20 04:21:22;;;;;;;6.93;3.85;;;;;;;8.29;100.00;100346.13;5033310;28;20037;-75
2022/09/20 04:24:12;;;;;;;5.43;2.60;;;;;;;8.31;100.00;100340.75;5017457;28;20029;-75
2022/09/20 04:26:47;;;;;;;3.55;3.25;;;;;;;8.33;100.00;100344.69;5017068;28;20025;-75
2022/09/20 04:29:47;;;;;;;6.93;2.70;;;;;;;8.41;100.00;100347.22;5016670;28;20489;-75
2022/09/20 04:32:29;;;;;;;7.63;3.47;;;;;;;8.32;100.00;100348.00;5033217;28;20029;-75
2022/09/20 04:38:04;;;;;;;5.40;4.50;;;;;;;8.40;100.00;100354.97;5015087;28;20072;-75
2022/09/20 04:40:52;;;;;;;6.28;3.35;;;;;;;8.41;100.00;100355.75;5030407;28;20386;-75
2022/09/20 04:43:52;;;;;;;5.68;3.47;;;;;;;8.35;100.00;100347.06;5033723;28;20398;-74
2022/09/20 04:46:41;;;;;;;5.30;3.55;;;;;;;8.44;100.00;100355.59;5034591;28;20083;-74
2022/09/20 04:49:32;;;;;;;6.35;3.80;;;;;;;8.49;100.00;100349.25;5034462;28;20080;-75
2022/09/20 04:52:33;;;;;;;5.68;4.60;;;;;;;8.41;100.00;100355.75;5033083;28;20079;-77
2022/09/20 04:55:34;;;;;;;9.20;3.92;;;;;;;8.49;100.00;100354.16;5033730;28;20034;-80
2022/09/20 04:58:11;;;;;;;6.38;4.47;;;;;;;8.65;100.00;100360.31;5035792;28;20025;-80
2022/09/20 05:01:05;;;;;;;6.65;4.70;;;;;;;8.67;100.00;100365.50;5033895;28;20036;-82
2022/09/20 05:03:55;;;;;;;9.82;5.60;;;;;;;8.70;100.00;100361.72;5034549;28;20025;-78
2022/09/20 05:07:15;;;;;;;8.70;5.95;;;;;;;8.67;100.00;100368.34;5032928;28;20039;-77
2022/09/20 05:09:54;;;;;;;9.90;6.43;;;;;;;8.71;100.00;100375.47;5012271;28;20029;-77
2022/09/20 05:12:52;;;;;;;8.88;7.03;;;;;;;8.68;100.00;100367.09;4996344;28;20095;-78
2022/09/20 05:15:51;;;;;;;10.65;6.97;;;;;;;8.72;100.00;100379.09;5012631;28;20045;-82
2022/09/20 05:18:45;;;;;;;11.55;7.35;;;;;;;8.75;100.00;100390.34;5028984;28;20113;-77
2022/09/20 05:21:39;;;;;;;9.68;7.45;;;;;;;8.80;100.00;100401.06;5032886;28;20471;-77
2022/09/20 05:24:43;;;;;;;10.00;6.88;;;;;;;8.79;100.00;100387.31;5034444;28;20415;-77
2022/09/20 05:28:00;;;;;;;12.32;7.25;;;;;;;8.87;100.00;100399.16;5025696;28;20037;-78
2022/09/20 05:30:40;;;;;;;8.98;7.03;;;;;;;8.94;100.00;100404.53;5022222;28;20112;-77
2022/09/20 05:33:11;;;;;;;11.23;6.53;;;;;;;8.98;100.00;100402.31;5033015;28;20393;-78
2022/09/20 05:35:55;;;;;;;11.15;7.07;;;;;;;9.03;100.00;100413.06;5034894;28;20018;-76
2022/09/20 05:38:20;;;;;;;10.75;6.97;;;;;;;8.94;100.00;100419.59;5032586;28;20040;-77
2022/09/20 05:41:14;;;;;;;10.25;7.40;;;;;;;9.00;100.00;100420.50;5031180;28;20025;-78
2022/09/20 05:44:02;;;;;;;8.20;6.18;;;;;;;9.01;100.00;100427.78;5030171;28;20068;-77
2022/09/20 05:46:52;;;;;;;8.15;5.80;;;;;;;9.05;100.00;100424.78;5031435;28;20049;-80
2022/09/20 05:49:39;;;;;;;8.88;6.57;;;;;;;9.20;100.00;100422.81;5029959;28;20048;-79
2022/09/20 05:52:33;;;;;;;10.00;5.90;;;;;;;9.22;100.00;100435.31;5030090;28;20022;-79
2022/09/20 05:55:14;;;;;;;13.20;6.30;;;;;;;9.33;100.00;100428.31;5031622;28;20022;-79
2022/09/20 05:58:13;;;;;;;9.63;5.87;;;;;;;9.20;100.00;100423.59;5032118;28;20151;-78
2022/09/20 06:00:49;;;;;;;7.45;5.45;;;;;;;9.30;100.00;100426.44;5048836;28;20026;-78
2022/09/20 06:03:39;;;;;;;7.50;5.50;;;;;;;9.44;100.00;100435.09;5032540;28;20075;-78
2022/09/20 06:06:26;;;;;;;7.30;5.10;;;;;;;9.59;100.00;100432.31;5032484;28;20056;-78
2022/09/20 06:09:16;;;;;;;9.20;5.03;;;;;;;9.77;100.00;100435.09;5034015;28;20483;-78
2022/09/20 06:12:12;;;;;;;6.60;5.13;;;;;;;9.97;100.00;100435.31;5032238;28;20028;-77
2022/09/20 06:15:01;;;;;;;8.38;4.82;;;;;;;10.06;100.00;100440.16;5031729;28;20449;-77
2022/09/20 06:17:38;;;;;;;5.80;4.35;;;;;;;10.24;100.00;100433.50;5048413;28;20033;-77
2022/09/20 06:20:21;;;;;;;7.93;4.90;;;;;;;10.30;100.00;100435.22;5031977;28;20053;-77
2022/09/20 06:22:53;;;;;;;12.82;5.85;;;;;;;10.28;100.00;100439.84;5015790;28;20387;-78
2022/09/20 06:25:43;;;;;;;6.60;4.50;;;;;;;10.28;100.00;100437.00;5031438;28;20033;-79
2022/09/20 06:28:29;;;;;;;8.52;4.78;;;;;;;10.41;100.00;100446.09;5034039;28;20038;-87
2022/09/20 06:30:55;;;;;;;7.03;4.93;;;;;;;10.20;100.00;100447.19;5034625;28;20029;-82
2022/09/20 06:33:26;;;;;;;7.63;4.88;;;;;;;10.10;100.00;100440.75;5022026;28;20037;-80
2022/09/20 06:42:16;;;;;;;14.00;5.03;;;;;;;10.59;100.00;100445.91;5025811;28;20060;-77
2022/09/20 06:44:43;;;;;;;5.15;4.03;;;;;;;10.63;100.00;100452.22;5058582;28;20039;-77
2022/09/20 06:47:09;;;;;;;7.28;3.90;;;;;;;10.59;100.00;100463.06;5050436;28;20117;-80
2022/09/20 06:49:35;;;;;;;7.10;3.95;;;;;;;10.66;100.00;100453.34;5001044;28;20041;-78
2022/09/20 06:52:03;;;;;;;6.10;4.40;;;;;;;10.67;100.00;100461.44;5004927;28;20125;-80
2022/09/20 06:54:29;;;;;;;7.70;4.43;;;;;;;10.69;100.00;100460.91;5034203;28;20046;-77
2022/09/20 06:56:55;;;;;;;8.95;5.03;;;;;;;10.75;100.00;100465.47;5022959;28;20076;-81
2022/09/20 06:59:20;;;;;;;8.15;4.22;;;;;;;10.82;100.00;100467.97;5019616;28;20434;-78
2022/09/20 07:01:46;;;;;;;6.53;3.72;;;;;;;10.85;100.00;100469.81;5034548;28;20033;-78
2022/09/20 07:04:12;;;;;;;6.78;4.47;;;;;;;10.89;100.00;100476.13;5039199;28;20041;-78
2022/09/20 07:06:39;;;;;;;7.68;4.57;;;;;;;10.95;100.00;100468.44;5021075;28;20033;-77
2022/09/20 07:09:06;;;;;;;8.82;4.82;;;;;;;11.13;100.00;100481.78;5025673;28;20045;-80
2022/09/20 07:11:33;;;;;;;9.07;3.45;;;;;;;11.04;100.00;100476.16;5045922;28;20061;-80
2022/09/20 07:14:00;;;;;;;10.02;5.13;;;;;;;11.17;100.00;100487.34;5023709;28;20026;-79
2022/09/20 07:16:26;;;;;;;9.73;4.63;;;;;;;11.06;100.00;100487.91;5039099;28;20038;-79
2022/09/20 07:18:51;;;;;;;4.95;4.28;;;;;;;11.07;100.00;100482.97;5025495;28;20028;-79
2022/09/20 07:21:19;;;;;;;5.85;4.05;;;;;;;11.36;100.00;100491.56;5041519;28;20113;-79
2022/09/20 07:23:45;;;;;;;9.15;4.07;;;;;;;11.53;100.00;100492.63;5036847;28;20026;-79
2022/09/20 07:26:22;;;;;;;6.25;4.40;;;;;;;11.68;100.00;100495.47;5038024;28;20378;-79
2022/09/20 07:28:48;;;;;;;5.25;4.05;;;;;;;11.58;100.00;100497.66;5040499;28;20036;-79
2022/09/20 07:31:15;;;;;;;10.57;4.75;;;;;;;11.72;100.00;100505.44;5036115;28;20461;-78
2022/09/20 07:33:40;;;;;;;12.02;4.10;;;;;;;11.69;100.00;100499.91;5037100;28;20026;-78
2022/09/20 07:36:06;;;;;;;11.82;3.92;;;;;;;11.55;100.00;100504.38;5038006;28;20042;-79
2022/09/20 07:38:31;;;;;;;10.18;4.30;;;;;;;11.45;100.00;100514.34;5022384;28;20044;-79
2022/09/20 07:40:59;;;;;;;10.88;4.28;;;;;;;11.54;100.00;100502.81;5025932;28;20022;-79
2022/09/20 07:43:25;;;;;;;6.50;3.88;;;;;;;11.59;100.00;100507.03;5045444;28;20025;-79
2022/09/20 07:45:54;;;;;;;7.10;4.03;;;;;;;11.75;100.00;100506.53;5037816;28;20030;-80
2022/09/20 07:48:25;;;;;;;8.45;4.18;;;;;;;11.99;100.00;100515.75;5034443;28;20409;-77
2022/09/20 07:50:56;;;;;;;8.00;4.03;;;;;;;12.25;100.00;100518.75;5034536;28;20044;-77
2022/09/20 07:53:22;;;;;;;11.85;3.72;;;;;;;12.61;100.00;100515.34;5017856;28;20025;-77
2022/09/20 07:56:10;;;;;;;5.00;3.05;;;;;;;12.91;100.00;100518.81;5017947;28;20030;-78
2022/09/20 07:58:36;;;;;;;6.53;3.33;;;;;;;13.41;100.00;100516.47;5035736;28;20056;-77
2022/09/20 08:01:04;;;;;;;5.13;3.38;;;;;;;13.68;100.00;100525.91;5034408;28;20037;-77
2022/09/20 08:03:31;;;;;;;5.65;3.67;;;;;;;13.91;100.00;100513.28;5033686;28;20505;-77
2022/09/20 08:06:09;;;;;;;9.95;3.67;;;;;;;14.71;100.00;100514.81;5034394;28;20030;-77
2022/09/20 08:08:37;;;;;;;4.75;3.28;;;;;;;15.59;100.00;100510.59;5036203;28;20497;-78
2022/09/20 08:11:05;;;;;;;5.43;2.78;;;;;;;16.50;100.00;100509.94;5001289;28;20032;-77
2022/09/20 08:13:42;;;;;;;9.27;4.00;;;;;;;16.32;100.00;100510.50;5017934;28;20227;-77
2022/09/20 08:16:16;;;;;;;6.35;3.35;;;;;;;16.13;100.00;100510.28;5034405;28;20497;-78
2022/09/20 08:18:46;;;;;;;6.45;3.70;;;;;;;15.83;100.00;100521.59;5033598;28;20036;-76
2022/09/20 08:21:12;;;;;;;5.38;3.25;;;;;;;15.66;100.00;100518.69;5033590;28;20059;-75
2022/09/20 08:23:42;;;;;;;4.10;3.58;;;;;;;15.78;100.00;100521.59;5016992;28;20477;-77
2022/09/20 08:26:11;;;;;;;4.03;3.28;;;;;;;15.77;100.00;100523.69;5017715;28;20044;-75
2022/09/20 08:28:37;;;;;;;7.68;2.85;;;;;;;15.31;100.00;100521.28;5035042;28;20076;-76
2022/09/20 08:31:05;;;;;;;6.93;2.88;;;;;;;14.96;100.00;100530.34;5032914;28;20029;-76
2022/09/20 08:33:31;;;;;;;4.13;2.88;;;;;;;14.61;100.00;100530.72;5033449;28;20025;-76
2022/09/20 08:35:57;;;;;;;4.15;2.90;;;;;;;14.28;100.00;100530.53;5033482;28;20029;-77
2022/09/20 08:38:26;;;;;;;4.57;2.95;;;;;;;14.20;100.00;100533.06;5017228;28;20029;-78
2022/09/20 08:41:09;;;;;;;6.72;2.90;;;;;;;14.19;100.00;100528.63;5017296;28;20064;-75
2022/09/20 08:43:38;;;;;;;4.97;2.60;;;;;;;14.70;100.00;100523.97;5001557;28;20033;-77
2022/09/20 08:46:05;;;;;;;4.78;2.65;;;;;;;15.72;100.00;100520.78;5033073;28;20102;-78
2022/09/20 08:48:32;;;;;;;7.07;3.00;;;;;;;16.70;99.99;100523.28;5034515;28;20079;-76
2022/09/20 08:51:03;;;;;;;10.38;2.88;;;;;;;17.48;94.01;100526.56;5033124;28;20100;-77
2022/09/20 08:53:29;;;;;;;3.75;2.63;;;;;;;17.34;85.41;100530.53;5036807;28;20037;-76
2022/09/20 08:55:58;;;;;;;3.78;2.80;;;;;;;17.27;84.54;100525.34;5036891;28;20026;-76
2022/09/20 08:58:27;;;;;;;3.10;2.17;;;;;;;16.86;85.95;100531.06;5035017;28;20470;-77
2022/09/20 09:00:55;;;;;;;3.97;2.60;;;;;;;16.35;88.21;100524.66;5032667;28;20037;-77
2022/09/20 09:03:20;;;;;;;4.72;2.40;;;;;;;16.35;88.50;100529.66;5031745;28;20037;-76
2022/09/20 09:05:52;;;;;;;4.10;2.50;;;;;;;16.24;91.83;100536.22;5032907;28;20034;-77
2022/09/20 09:08:20;;;;;;;5.53;2.45;;;;;;;16.36;89.11;100539.84;5016016;28;20029;-77
2022/09/20 09:10:55;;;;;;;5.10;2.50;;;;;;;16.31;88.58;100534.88;5032805;28;20476;-80
2022/09/20 09:13:26;;;;;;;5.85;2.45;;;;;;;16.20;88.61;100532.03;5034282;28;20037;-76
2022/09/20 09:15:58;;;;;;;11.63;3.47;;;;;;;15.93;88.86;100542.28;5032687;28;20039;-77
2022/09/20 09:18:32;;;;;;;3.75;2.30;;;;;;;15.65;90.57;100542.28;5015670;28;20489;-77
2022/09/20 09:20:58;;;;;;;7.47;3.08;;;;;;;15.33;93.92;100546.66;5030087;28;20506;-76
2022/09/20 09:23:30;;;;;;;8.13;3.55;;;;;;;14.65;97.09;100539.09;5014211;28;20045;-75
2022/09/20 09:26:02;;;;;;;6.47;3.92;;;;;;;14.46;100.00;100541.59;5031621;28;20029;-78
2022/09/20 09:28:30;;;;;;;9.88;3.55;;;;;;;14.54;100.00;100541.88;5030367;28;20027;-76
2022/09/20 09:31:31;;;;;;;4.53;2.85;;;;;;;14.30;100.00;100539.41;5030387;28;20044;-77
2022/09/20 09:33:56;;;;;;;8.77;3.70;;;;;;;15.19;100.00;100531.97;5031140;28;20439;-76
2022/09/20 09:36:24;;;;;;;6.95;3.00;;;;;;;15.57;100.00;100541.97;5015201;28;20052;-77
2022/09/20 09:38:50;;;;;;;3.92;3.40;;;;;;;15.55;98.67;100540.94;5017539;28;20109;-77
2022/09/20 09:41:25;;;;;;;5.45;3.55;;;;;;;15.71;100.00;100545.19;5030617;28;20025;-75
2022/09/20 09:43:59;;;;;;;4.38;2.90;;;;;;;15.86;97.68;100549.34;5014165;28;20036;-78
2022/09/20 09:46:26;;;;;;;4.65;3.15;;;;;;;15.93;95.23;100548.84;5032244;28;20108;-75
2022/09/20 09:49:15;;;;;;;7.53;3.65;;;;;;;15.88;93.33;100545.94;5015977;28;20112;-75
2022/09/20 09:51:43;;;;;;;5.18;3.50;;;;;;;16.00;92.13;100547.53;5032328;28;20096;-77
2022/09/20 09:54:18;;;;;;;4.13;3.00;;;;;;;15.87;90.72;100550.94;5015796;28;20479;-77
2022/09/20 09:57:20;;;;;;;5.03;3.10;;;;;;;15.71;92.27;100551.72;5015860;28;20483;-76
2022/09/20 09:59:46;;;;;;;6.00;3.60;;;;;;;15.51;95.34;100555.59;5032149;28;20067;-76
2022/09/20 10:02:22;;;;;;;7.40;3.40;;;;;;;15.79;96.29;100554.88;5031962;28;20079;-75
2022/09/20 10:05:01;;;;;;;4.65;3.17;;;;;;;15.01;96.19;100546.84;5016314;28;20021;-76
2022/09/20 10:07:29;;;;;;;6.28;3.13;;;;;;;14.87;99.98;100556.47;5036126;28;20062;-76
2022/09/20 10:10:06;;;;;;;6.28;3.17;;;;;;;15.06;100.00;100543.19;5035799;28;20032;-77
2022/09/20 10:12:53;;;;;;;10.73;3.60;;;;;;;15.41;100.00;100551.41;5037195;28;20078;-75
2022/09/20 10:15:57;;;;;;;4.75;3.30;;;;;;;15.61;100.00;100542.53;5037291;28;20155;-75
2022/09/20 10:18:41;;;;;;;5.47;2.97;;;;;;;15.83;98.60;100544.66;5036753;28;20068;-75
2022/09/20 10:21:25;;;;;;;3.92;3.28;;;;;;;15.95;95.11;100554.09;5036508;28;20052;-75
2022/09/20 10:24:09;;;;;;;4.07;3.00;;;;;;;16.49;94.81;100545.88;5035684;28;20124;-76
2022/09/20 10:27:11;;;;;;;3.05;2.50;;;;;;;16.04;91.65;100554.59;5035682;28;20022;-76
2022/09/20 10:30:08;;;;;;;6.38;2.85;;;;;;;16.29;93.35;100551.94;5037009;28;20034;-76
2022/09/20 10:33:08;;;;;;;6.22;3.00;;;;;;;16.67;91.14;100551.09;5019076;28;20100;-77
2022/09/20 10:36:27;;;;;;;4.72;2.95;;;;;;;16.91;86.99;100562.00;5018924;28;20037;-75
2022/09/20 10:39:10;;;;;;;4.47;2.42;;;;;;;17.01;86.34;100559.59;5034508;28;20224;-76
2022/09/20 10:44:57;;;;;;;4.03;2.08;;;;;;;16.46;87.13;100561.34;5036770;28;20087;-75
2022/09/20 10:47:33;;;;;;;2.65;2.42;;;;;;;16.38;89.36;100560.31;5035135;28;20083;-75
2022/09/20 10:50:32;;;;;;;6.35;2.53;;;;;;;16.35;91.97;100564.28;5035603;28;20028;-77
2022/09/20 10:53:19;;;;;;;6.47;2.47;;;;;;;16.52;90.87;100560.03;5035062;28;20021;-77
2022/09/20 10:55:58;;;;;;;7.05;2.15;;;;;;;16.71;89.61;100550.81;5036190;28;20101;-76
2022/09/20 10:59:10;;;;;;;3.30;1.77;;;;;;;16.81;87.79;100538.44;5036535;28;20108;-76
2022/09/20 11:01:44;;;;;;;3.28;1.88;;;;;;;16.55;85.62;100553.22;5035275;28;20548;-76
2022/09/20 11:04:31;;;;;;;6.20;2.22;;;;;;;16.49;84.29;100557.41;5036261;28;20025;-75
2022/09/20 11:07:02;;;;;;;3.30;1.80;;;;;;;16.37;87.15;100555.84;5036643;28;20025;-76
2022/09/20 11:09:33;;;;;;;6.15;1.80;;;;;;;16.40;88.90;100546.94;5034945;28;20021;-76
2022/09/20 11:12:09;;;;;;;3.97;1.60;;;;;;;16.52;88.07;100550.56;5018664;28;20075;-76
2022/09/20 11:14:39;;;;;;;1.65;1.38;;;;;;;16.33;87.98;100556.13;5018553;28;20124;-76
2022/09/20 11:17:11;;;;;;;3.55;1.90;;;;;;;16.42;88.92;100555.06;5033839;28;20018;-76
2022/09/20 11:19:47;;;;;;;5.85;2.00;;;;;;;16.74;88.73;100555.53;5017909;28;20094;-75
2022/09/20 11:22:27;;;;;;;1.92;1.40;;;;;;;16.83;85.96;100549.47;5018509;28;20079;-76
2022/09/20 11:24:57;;;;;;;5.80;2.13;;;;;;;16.91;81.48;100559.91;5018175;28;20120;-77
2022/09/20 11:27:28;;;;;;;5.32;1.90;;;;;;;17.04;80.22;100565.13;5035995;28;20025;-76
2022/09/20 11:30:06;;;;;;;5.13;1.93;;;;;;;17.12;80.57;100562.44;5018258;28;20025;-75
2022/09/20 11:33:06;;;;;;;6.18;1.70;;;;;;;17.22;81.13;100552.94;5034725;28;20021;-77
2022/09/20 11:35:50;;;;;;;3.47;2.15;;;;;;;17.49;80.97;100550.47;5034657;28;20048;-77
2022/09/20 11:38:31;;;;;;;4.53;1.52;;;;;;;17.53;75.10;100553.84;5036182;28;20072;-77
2022/09/20 11:41:32;;;;;;;3.30;1.65;;;;;;;17.48;74.20;100552.56;5019526;28;20025;-76
2022/09/20 11:44:03;;;;;;;3.45;1.45;;;;;;;17.29;73.49;100563.91;5000808;28;20110;-76
2022/09/20 11:46:51;;;;;;;4.70;2.03;;;;;;;16.84;76.07;100553.94;5014385;28;20577;-76
2022/09/20 11:49:27;;;;;;;4.60;1.88;;;;;;;16.60;80.59;100550.88;5034155;28;20064;-77
2022/09/20 11:52:02;;;;;;;2.13;1.30;;;;;;;16.40;81.20;100557.72;5034133;28;20018;-77
2022/09/20 11:54:46;;;;;;;3.03;1.55;;;;;;;16.18;82.41;100546.97;5017585;28;20351;-75
2022/09/20 11:57:15;;;;;;;5.88;1.65;;;;;;;16.01;85.06;100552.75;5033903;28;20029;-76
2022/09/20 11:59:41;;;;;;;3.97;1.88;;;;;;;16.02;87.06;100551.44;5017651;28;20029;-77
2022/09/20 12:02:40;;;;;;;2.75;1.70;;;;;;;16.43;88.18;100551.66;5017315;28;20067;-75
2022/09/20 12:05:22;;;;;;;2.03;1.40;;;;;;;16.84;83.62;100551.81;5030305;28;20390;-78
2022/09/20 12:07:52;;;;;;;5.13;1.63;;;;;;;16.65;79.35;100555.84;5034446;28;20027;-74
2022/09/20 12:10:22;;;;;;;6.07;1.30;;;;;;;16.79;79.15;100558.41;5017232;28;20466;-75
2022/09/20 12:13:24;;;;;;;3.40;1.55;;;;;;;16.92;83.43;100564.38;5017096;28;20048;-75
2022/09/20 12:16:02;;;;;;;1.52;1.23;;;;;;;16.74;87.12;100575.75;5015683;28;20437;-76
2022/09/20 12:18:45;;;;;;;2.17;1.00;;;;;;;16.00;91.33;100587.88;5017101;28;20037;-76
2022/09/20 12:21:17;;;;;;;8.63;2.25;;;;;;;15.57;100.00;100590.94;5016867;28;20501;-77
2022/09/20 12:23:47;;;;;;;;;;;;;;;15.07;100.00;100587.16;5034147;28;20150;-76